Terminal Aerodrome Forecast
Issued by NWS

Home | Current Version | Previous Version | Text Only | Print | Product List | Glossary On
Versions: 1 2 3 4 5 6 7 8 9 10 11 12 13 14 15 16 17 18
000
FTUS41 KBGM 031132
TAFRME
TAF
KRME 031132Z 0312/0412 VRB03KT P6SM SCT100 BKN250
     FM031500 28008KT P6SM SCT100 BKN250
     FM040000 VRB03KT P6SM SCT250=

USA.gov is the U.S. government's official web portal to all federal, state and local government web resources and services.